createdAt,value
2023-03-17T00:00:19.860Z,649.56
2023-03-17T00:01:19.889Z,650.50
2023-03-17T00:02:19.903Z,651.41
2023-03-17T00:03:19.934Z,649.83
2023-03-17T00:04:19.835Z,651.62
2023-03-17T00:05:19.821Z,650.20
2023-03-17T00:06:19.810Z,652.65
2023-03-17T00:07:19.816Z,652.66
2023-03-17T00:08:19.785Z,651.53
2023-03-17T00:09:19.826Z,651.83
2023-03-17T00:10:19.767Z,651.08
2023-03-17T00:11:19.747Z,652.08
2023-03-17T00:12:19.744Z,650.78
2023-03-17T00:13:19.736Z,651.00
2023-03-17T00:14:19.762Z,655.14
2023-03-17T00:15:19.716Z,655.05
2023-03-17T00:16:19.835Z,652.91
2023-03-17T00:17:19.677Z,653.69
2023-03-17T00:18:19.668Z,653.48
2023-03-17T00:19:19.687Z,653.45
2023-03-17T00:20:19.656Z,653.11
2023-03-17T00:21:19.658Z,653.68
2023-03-17T00:22:19.631Z,653.28
2023-03-17T00:23:19.648Z,651.98
2023-03-17T00:24:19.638Z,652.82
2023-03-17T00:25:19.585Z,653.63
2023-03-17T00:26:19.620Z,652.51
2023-03-17T00:27:19.584Z,654.05
2023-03-17T00:28:19.585Z,655.91
2023-03-17T00:29:19.557Z,655.19
2023-03-17T00:30:19.571Z,654.72
2023-03-17T00:31:19.615Z,654.79
2023-03-17T00:32:19.521Z,654.08
2023-03-17T00:33:19.520Z,654.56
2023-03-17T00:34:19.508Z,653.35
2023-03-17T00:35:19.509Z,653.31
2023-03-17T00:36:19.461Z,654.34
2023-03-17T00:37:19.462Z,653.00
2023-03-17T00:38:19.535Z,653.16
2023-03-17T00:39:19.475Z,654.11
2023-03-17T00:40:19.431Z,653.22
2023-03-17T00:41:19.423Z,654.91
2023-03-17T00:42:19.416Z,654.29
2023-03-17T00:43:26.418Z,655.43
2023-03-17T00:44:19.370Z,655.36
2023-03-17T00:45:19.387Z,653.95
2023-03-17T00:46:19.371Z,654.06
2023-03-17T00:47:19.360Z,653.80
2023-03-17T00:48:19.331Z,653.29
2023-03-17T00:49:19.352Z,653.51
2023-03-17T00:50:19.355Z,653.18
2023-03-17T00:51:19.326Z,653.07
2023-03-17T00:52:19.282Z,654.01
2023-03-17T00:53:19.281Z,654.73
2023-03-17T00:54:19.273Z,654.24
2023-03-17T00:55:19.258Z,654.61
2023-03-17T00:56:19.263Z,654.94
2023-03-17T00:57:19.233Z,653.61
2023-03-17T00:58:19.243Z,654.62
2023-03-17T00:59:19.495Z,654.15
2023-03-17T01:00:19.201Z,654.63
2023-03-17T01:01:19.213Z,654.42
2023-03-17T01:02:19.219Z,652.85
2023-03-17T01:03:19.172Z,654.39
2023-03-17T01:04:19.165Z,655.21
2023-03-17T01:05:19.151Z,655.31
2023-03-17T01:06:19.157Z,655.52
2023-03-17T01:07:19.139Z,654.70
2023-03-17T01:08:19.119Z,655.09
2023-03-17T01:09:19.090Z,655.06
2023-03-17T01:10:19.091Z,655.36
2023-03-17T01:11:19.128Z,655.79
2023-03-17T01:12:19.080Z,656.02
2023-03-17T01:13:19.049Z,655.47
2023-03-17T01:14:19.045Z,654.98
2023-03-17T01:15:19.027Z,654.49
2023-03-17T01:16:19.114Z,654.40
2023-03-17T01:17:19.043Z,655.78
2023-03-17T01:18:19.073Z,657.16
2023-03-17T01:19:18.994Z,656.83
2023-03-17T01:20:18.972Z,657.06
2023-03-17T01:21:18.960Z,657.02
2023-03-17T01:22:18.962Z,654.96
2023-03-17T01:23:18.960Z,658.07
2023-03-17T01:24:18.933Z,656.20
2023-03-17T01:25:18.922Z,657.64
2023-03-17T01:26:18.919Z,656.88
2023-03-17T01:27:18.923Z,657.05
2023-03-17T01:28:18.886Z,658.09
2023-03-17T01:29:18.869Z,660.35
2023-03-17T01:30:18.874Z,662.20
2023-03-17T01:31:18.871Z,661.81
2023-03-17T01:32:18.851Z,663.85
2023-03-17T01:33:18.838Z,665.91
2023-03-17T01:34:18.819Z,665.36
2023-03-17T01:35:18.805Z,667.41
2023-03-17T01:36:18.798Z,666.12
2023-03-17T01:37:18.810Z,666.38
2023-03-17T01:38:18.876Z,665.41
2023-03-17T01:39:18.800Z,664.88
2023-03-17T01:40:18.791Z,664.20
2023-03-17T01:41:19.291Z,663.95
2023-03-17T01:42:18.732Z,663.60
2023-03-17T01:43:18.726Z,664.06
2023-03-17T01:44:18.725Z,664.40
2023-03-17T01:45:18.696Z,665.13
2023-03-17T01:46:18.720Z,664.58
2023-03-17T01:47:18.691Z,664.57
2023-03-17T01:48:18.684Z,665.04
2023-03-17T01:49:18.655Z,663.47
2023-03-17T01:50:18.713Z,662.45
2023-03-17T01:51:18.676Z,661.68
2023-03-17T01:52:18.643Z,660.42
2023-03-17T01:53:18.610Z,662.21
2023-03-17T01:54:18.601Z,662.19
2023-03-17T01:55:18.620Z,663.63
2023-03-17T01:56:18.596Z,663.44
2023-03-17T01:57:18.588Z,663.96
2023-03-17T01:58:18.569Z,663.55
2023-03-17T01:59:18.565Z,662.64
2023-03-17T02:00:18.550Z,661.90
2023-03-17T02:01:18.593Z,662.31
2023-03-17T02:02:18.538Z,661.24
2023-03-17T02:03:18.534Z,661.06
2023-03-17T02:04:18.548Z,662.63
2023-03-17T02:05:18.492Z,662.47
2023-03-17T02:06:18.485Z,661.92
2023-03-17T02:07:18.456Z,661.95
2023-03-17T02:08:18.449Z,661.83
2023-03-17T02:09:18.448Z,661.40
2023-03-17T02:10:18.424Z,660.87
2023-03-17T02:11:18.436Z,661.20
2023-03-17T02:12:18.416Z,661.36
2023-03-17T02:13:18.423Z,661.49
2023-03-17T02:14:18.383Z,661.45
2023-03-17T02:15:18.382Z,662.44
2023-03-17T02:16:18.402Z,661.10
2023-03-17T02:17:18.346Z,662.46
2023-03-17T02:18:18.362Z,661.07
2023-03-17T02:19:18.340Z,662.88
2023-03-17T02:20:18.384Z,663.42
2023-03-17T02:21:18.326Z,664.55
2023-03-17T02:22:18.327Z,664.10
2023-03-17T02:23:18.298Z,663.82
2023-03-17T02:24:18.304Z,665.53
2023-03-17T02:25:18.258Z,665.12
2023-03-17T02:26:18.249Z,663.70
2023-03-17T02:27:18.280Z,663.16
2023-03-17T02:28:18.227Z,663.70
2023-03-17T02:29:18.213Z,664.08
2023-03-17T02:30:18.221Z,665.45
2023-03-17T02:31:18.213Z,665.45
2023-03-17T02:32:18.221Z,665.12
2023-03-17T02:33:18.219Z,665.85
2023-03-17T02:34:18.173Z,666.82
2023-03-17T02:35:18.177Z,666.53
2023-03-17T02:36:18.175Z,667.22
2023-03-17T02:37:18.137Z,665.43
2023-03-17T02:38:18.132Z,666.71
2023-03-17T02:39:18.114Z,666.88
2023-03-17T02:40:18.107Z,666.18
2023-03-17T02:41:18.115Z,665.70
2023-03-17T02:42:18.132Z,664.96
2023-03-17T02:43:18.093Z,664.97
2023-03-17T02:45:44.971Z,663.20
2023-03-17T02:46:44.908Z,665.31
2023-03-17T02:47:44.912Z,664.14
2023-03-17T02:48:44.868Z,663.79
2023-03-17T02:49:44.876Z,663.05
2023-03-17T02:50:44.874Z,662.77
2023-03-17T02:51:44.871Z,662.93
2023-03-17T02:52:44.840Z,662.13
2023-03-17T02:53:44.838Z,661.78
2023-03-17T02:54:44.804Z,661.90
2023-03-17T02:55:44.805Z,661.32
2023-03-17T02:56:44.797Z,660.73
2023-03-17T02:57:44.811Z,660.97
2023-03-17T02:58:44.785Z,660.39
2023-03-17T02:59:44.793Z,660.11
2023-03-17T03:00:44.753Z,660.29
2023-03-17T03:01:44.884Z,660.06
2023-03-17T03:02:44.799Z,659.71
2023-03-17T03:03:44.726Z,660.34
2023-03-17T03:04:44.716Z,660.22
2023-03-17T03:05:44.689Z,660.28
2023-03-17T03:06:44.753Z,659.98
2023-03-17T03:07:44.679Z,660.06
2023-03-17T03:08:44.661Z,659.34
2023-03-17T03:09:44.662Z,658.42
2023-03-17T03:10:44.641Z,659.24
2023-03-17T03:11:44.653Z,658.70
2023-03-17T03:12:44.613Z,658.52
2023-03-17T03:13:44.610Z,659.12
2023-03-17T03:14:44.634Z,660.54
2023-03-17T03:15:44.661Z,660.78
2023-03-17T03:16:44.574Z,660.21
2023-03-17T03:17:44.566Z,659.09
2023-03-17T03:18:44.545Z,659.97
2023-03-17T03:19:44.544Z,660.48
2023-03-17T03:20:44.525Z,660.32
2023-03-17T03:21:44.532Z,659.88
2023-03-17T03:22:44.513Z,658.79
2023-03-17T03:23:44.531Z,659.62
2023-03-17T03:24:44.489Z,659.30
2023-03-17T03:25:44.488Z,658.96
2023-03-17T03:26:44.462Z,659.31
2023-03-17T03:27:44.469Z,657.81
2023-03-17T03:28:44.446Z,658.88
2023-03-17T03:29:44.436Z,659.05
2023-03-17T03:30:44.532Z,659.25
2023-03-17T03:31:44.409Z,659.95
2023-03-17T03:32:44.459Z,659.83
2023-03-17T03:33:44.398Z,658.85
2023-03-17T03:34:44.366Z,659.81
2023-03-17T03:35:44.436Z,660.62
2023-03-17T03:36:44.371Z,661.55
2023-03-17T03:37:44.335Z,661.10
2023-03-17T03:38:44.375Z,660.38
2023-03-17T03:39:44.323Z,660.39
2023-03-17T03:40:44.295Z,660.49
2023-03-17T03:41:44.291Z,660.90
2023-03-17T03:42:44.293Z,660.23
2023-03-17T03:43:44.292Z,660.47
2023-03-17T03:44:44.278Z,659.13
2023-03-17T03:45:44.245Z,661.57
2023-03-17T03:46:44.400Z,660.64
2023-03-17T03:47:44.247Z,660.58
2023-03-17T03:48:44.266Z,660.66
2023-03-17T03:49:44.209Z,659.67
2023-03-17T03:50:44.212Z,659.66
2023-03-17T03:51:44.173Z,661.60
2023-03-17T03:52:44.160Z,661.01
2023-03-17T03:53:44.161Z,661.29
2023-03-17T03:54:44.136Z,660.68
2023-03-17T03:55:44.153Z,660.23
2023-03-17T03:56:44.114Z,659.99
2023-03-17T03:57:44.140Z,661.32
2023-03-17T03:58:44.104Z,661.01
2023-03-17T03:59:44.104Z,661.16
2023-03-17T04:00:44.083Z,660.17
2023-03-17T04:01:44.079Z,660.02
2023-03-17T04:02:44.137Z,660.25
2023-03-17T04:03:44.042Z,659.59
2023-03-17T04:04:44.111Z,660.54
2023-03-17T04:05:44.040Z,660.41
2023-03-17T04:06:44.020Z,659.85
2023-03-17T04:07:44.008Z,660.74
2023-03-17T04:08:44.005Z,660.58
2023-03-17T04:09:43.998Z,660.21
2023-03-17T04:10:43.963Z,660.91
2023-03-17T04:11:43.971Z,659.66
2023-03-17T04:12:43.970Z,661.11
2023-03-17T04:13:43.929Z,659.84
2023-03-17T04:14:43.939Z,660.80
2023-03-17T04:15:43.925Z,660.36
2023-03-17T04:16:43.925Z,660.93
2023-03-17T04:17:43.897Z,660.64
2023-03-17T04:18:43.940Z,662.16
2023-03-17T04:19:43.876Z,661.64
2023-03-17T04:20:43.859Z,661.81
2023-03-17T04:21:43.849Z,660.63
2023-03-17T04:22:43.856Z,660.78
2023-03-17T04:23:43.825Z,660.88
2023-03-17T04:24:43.809Z,660.50
2023-03-17T04:25:43.806Z,660.92
2023-03-17T04:26:43.792Z,661.14
2023-03-17T04:27:43.773Z,661.15
2023-03-17T04:28:43.762Z,661.45
2023-03-17T04:29:43.750Z,661.62
2023-03-17T04:30:43.739Z,662.65
2023-03-17T04:31:43.808Z,661.06
2023-03-17T04:32:43.740Z,662.08
2023-03-17T04:33:43.709Z,662.12
2023-03-17T04:34:43.728Z,663.29
2023-03-17T04:35:43.794Z,662.54
2023-03-17T04:36:43.684Z,662.66
2023-03-17T04:37:43.665Z,664.47
2023-03-17T04:38:43.669Z,663.22
2023-03-17T04:39:43.652Z,663.02
2023-03-17T04:40:43.650Z,663.32
2023-03-17T04:41:43.669Z,662.80
2023-03-17T04:42:43.643Z,662.85
2023-03-17T04:43:43.621Z,661.86
2023-03-17T04:44:43.580Z,662.77
2023-03-17T04:46:59.527Z,657.87
2023-03-17T04:47:59.501Z,661.82
2023-03-17T04:48:59.491Z,661.82
2023-03-17T04:49:59.568Z,661.90
2023-03-17T04:50:59.490Z,661.98
2023-03-17T04:51:59.443Z,662.38
2023-03-17T04:52:59.433Z,660.78
2023-03-17T04:53:59.451Z,661.94
2023-03-17T04:54:59.414Z,662.35
2023-03-17T04:55:59.412Z,661.87
2023-03-17T04:56:59.411Z,661.21
2023-03-17T04:57:59.440Z,662.12
2023-03-17T04:58:59.369Z,661.31
2023-03-17T04:59:59.374Z,662.07
2023-03-17T05:00:59.527Z,661.99
2023-03-17T05:01:59.390Z,662.04
2023-03-17T05:02:59.362Z,661.87
2023-03-17T05:03:59.321Z,661.51
2023-03-17T05:04:59.303Z,662.06
2023-03-17T05:05:59.318Z,661.17
2023-03-17T05:06:59.307Z,661.66
2023-03-17T05:07:59.264Z,661.71
2023-03-17T05:08:59.269Z,661.77
2023-03-17T05:09:59.253Z,661.86
2023-03-17T05:10:59.253Z,661.68
2023-03-17T05:11:59.229Z,661.97
2023-03-17T05:12:59.222Z,661.18
2023-03-17T05:13:59.217Z,660.34
2023-03-17T05:14:59.216Z,660.69
2023-03-17T05:15:59.194Z,661.44
2023-03-17T05:16:59.180Z,660.29
2023-03-17T05:17:59.183Z,660.94
2023-03-17T05:18:59.146Z,660.87
2023-03-17T05:19:59.136Z,660.16
2023-03-17T05:20:59.136Z,661.26
2023-03-17T05:21:59.170Z,660.73
2023-03-17T05:22:59.134Z,661.19
2023-03-17T05:23:59.095Z,661.54
2023-03-17T05:24:59.106Z,661.84
2023-03-17T05:25:59.106Z,661.73
2023-03-17T05:26:59.064Z,660.77
2023-03-17T05:27:59.059Z,660.68
2023-03-17T05:28:59.055Z,660.21
2023-03-17T05:29:59.020Z,659.46
2023-03-17T05:30:59.108Z,660.09
2023-03-17T05:31:58.998Z,659.79
2023-03-17T05:32:59.034Z,660.22
2023-03-17T05:33:58.986Z,660.41
2023-03-17T05:34:58.981Z,660.76
2023-03-17T05:35:59.023Z,661.22
2023-03-17T05:36:58.950Z,661.04
2023-03-17T05:37:58.961Z,660.68
2023-03-17T05:38:58.949Z,660.75
2023-03-17T05:39:58.934Z,661.44
2023-03-17T05:40:58.903Z,659.55
2023-03-17T05:41:58.930Z,660.53
2023-03-17T05:42:58.898Z,661.20
2023-03-17T05:43:58.881Z,661.03
2023-03-17T05:44:58.873Z,660.62
2023-03-17T05:45:58.917Z,660.74
2023-03-17T05:46:58.865Z,659.39
2023-03-17T05:47:58.854Z,660.36
2023-03-17T05:48:58.831Z,661.03
2023-03-17T05:49:58.816Z,660.98
2023-03-17T05:50:58.792Z,660.02
2023-03-17T05:51:58.824Z,660.09
2023-03-17T05:52:58.783Z,660.05
2023-03-17T05:53:58.826Z,660.65
2023-03-17T05:54:58.749Z,660.15
2023-03-17T05:55:58.741Z,660.59
2023-03-17T05:56:58.742Z,660.16
2023-03-17T05:57:58.729Z,659.60
2023-03-17T05:58:58.718Z,660.44
2023-03-17T05:59:58.715Z,660.69
2023-03-17T06:00:58.694Z,660.85
2023-03-17T06:01:58.760Z,661.05
2023-03-17T06:02:59.465Z,661.03
2023-03-17T06:03:58.671Z,660.84
2023-03-17T06:04:58.639Z,661.52
2023-03-17T06:05:58.641Z,661.35
2023-03-17T06:06:58.629Z,661.58
2023-03-17T06:07:58.629Z,661.42
2023-03-17T06:08:58.599Z,660.32
2023-03-17T06:09:58.611Z,660.49
2023-03-17T06:10:58.591Z,660.64
2023-03-17T06:11:58.585Z,660.26
2023-03-17T06:12:58.555Z,660.51
2023-03-17T06:13:58.570Z,659.88
2023-03-17T06:14:58.545Z,660.67
2023-03-17T06:15:58.549Z,660.75
2023-03-17T06:16:58.508Z,660.10
2023-03-17T06:17:58.496Z,661.68
2023-03-17T06:18:58.486Z,660.57
2023-03-17T06:19:58.472Z,661.72
2023-03-17T06:20:58.474Z,661.34
2023-03-17T06:21:58.456Z,661.89
2023-03-17T06:23:04.508Z,661.71
2023-03-17T06:23:58.453Z,661.17
2023-03-17T06:24:58.437Z,661.83
2023-03-17T06:25:58.470Z,662.76
2023-03-17T06:26:58.442Z,661.04
2023-03-17T06:27:58.386Z,661.03
2023-03-17T06:28:58.388Z,661.20
2023-03-17T06:29:58.392Z,663.41
2023-03-17T06:30:58.382Z,662.78
2023-03-17T06:32:09.260Z,662.82
2023-03-17T06:32:58.595Z,662.35
2023-03-17T06:33:58.366Z,661.62
2023-03-17T06:34:58.378Z,662.14
2023-03-17T06:35:58.338Z,663.09
2023-03-17T06:36:58.305Z,662.67
2023-03-17T06:37:58.281Z,663.23
2023-03-17T06:38:58.278Z,663.48
2023-03-17T06:39:58.267Z,662.39
2023-03-17T06:40:58.327Z,663.81
2023-03-17T06:41:58.261Z,662.56
2023-03-17T06:42:58.392Z,662.64
2023-03-17T06:43:58.209Z,664.01
2023-03-17T06:44:58.263Z,665.16
2023-03-17T06:45:58.734Z,666.01
2023-03-17T06:48:14.134Z,661.13
2023-03-17T06:49:14.102Z,664.88
2023-03-17T06:50:15.521Z,666.43
2023-03-17T06:51:14.097Z,664.95
2023-03-17T06:52:14.080Z,664.33
2023-03-17T06:53:14.423Z,665.60
2023-03-17T06:54:14.623Z,664.35
2023-03-17T06:55:14.351Z,664.32
2023-03-17T06:56:28.863Z,664.53
2023-03-17T06:57:15.067Z,665.79
2023-03-17T06:58:14.054Z,665.58
2023-03-17T06:59:14.020Z,665.29
2023-03-17T07:00:14.136Z,664.92
2023-03-17T07:01:15.052Z,664.80
2023-03-17T07:02:13.953Z,664.78
2023-03-17T07:03:13.965Z,663.76
2023-03-17T07:04:13.961Z,665.69
2023-03-17T07:05:13.937Z,664.64
2023-03-17T07:06:13.903Z,665.00
2023-03-17T07:07:13.894Z,663.22
2023-03-17T07:08:13.899Z,663.95
2023-03-17T07:09:13.878Z,665.98
2023-03-17T07:10:13.858Z,666.54
2023-03-17T07:11:13.870Z,664.70
2023-03-17T07:12:13.834Z,666.15
2023-03-17T07:13:13.862Z,664.91
2023-03-17T07:14:13.870Z,666.50
2023-03-17T07:15:13.821Z,666.45
2023-03-17T07:16:13.831Z,666.62
2023-03-17T07:17:13.814Z,667.21
2023-03-17T07:18:13.785Z,668.90
2023-03-17T07:19:13.760Z,665.74
2023-03-17T07:20:13.765Z,664.66
2023-03-17T07:21:13.772Z,666.09
2023-03-17T07:22:13.742Z,669.41
2023-03-17T07:23:13.733Z,668.74
2023-03-17T07:24:13.713Z,668.78
2023-03-17T07:25:13.746Z,670.66
2023-03-17T07:26:13.691Z,667.32
2023-03-17T07:27:13.711Z,669.39
2023-03-17T07:28:13.674Z,667.28
2023-03-17T07:29:13.663Z,669.69
2023-03-17T07:30:13.644Z,667.44
2023-03-17T07:31:13.884Z,668.29
2023-03-17T07:32:13.667Z,666.89
2023-03-17T07:33:13.733Z,667.69
2023-03-17T07:34:14.900Z,669.87
2023-03-17T07:35:13.936Z,669.11
2023-03-17T07:36:13.628Z,669.22
2023-03-17T07:37:13.584Z,669.58
2023-03-17T07:38:13.560Z,670.59
2023-03-17T07:39:13.596Z,669.37
2023-03-17T07:40:13.561Z,669.79
2023-03-17T07:41:13.587Z,668.54
2023-03-17T07:42:13.586Z,669.76
2023-03-17T07:43:13.815Z,670.90
2023-03-17T07:44:13.537Z,671.01
2023-03-17T07:45:13.495Z,673.62
2023-03-17T07:46:13.566Z,673.25
2023-03-17T07:47:13.461Z,670.01
2023-03-17T07:48:13.507Z,670.92
2023-03-17T07:49:13.436Z,669.25
2023-03-17T07:50:14.629Z,671.37
2023-03-17T07:51:13.408Z,672.50
2023-03-17T07:52:13.427Z,673.34
2023-03-17T07:53:13.420Z,671.08
2023-03-17T07:54:15.072Z,676.01
2023-03-17T07:55:13.364Z,676.27
2023-03-17T07:56:13.382Z,674.20
2023-03-17T07:57:13.573Z,674.37
2023-03-17T07:58:15.729Z,674.83
2023-03-17T07:59:13.350Z,671.63
2023-03-17T08:00:13.540Z,675.58
2023-03-17T08:01:14.881Z,676.45
2023-03-17T08:02:13.456Z,676.19
2023-03-17T08:03:13.617Z,678.36
2023-03-17T08:04:13.316Z,677.74
2023-03-17T08:05:13.320Z,678.69
2023-03-17T08:06:13.642Z,678.47
2023-03-17T08:07:13.270Z,679.65
2023-03-17T08:08:13.274Z,683.36
2023-03-17T08:09:13.242Z,680.00
2023-03-17T08:10:13.235Z,679.42
2023-03-17T08:11:13.199Z,682.99
2023-03-17T08:12:13.224Z,683.72
2023-03-17T08:13:13.516Z,680.93
2023-03-17T08:14:13.283Z,685.84
2023-03-17T08:15:13.623Z,683.73
2023-03-17T08:16:13.430Z,682.53
2023-03-17T08:17:15.354Z,685.18
2023-03-17T08:18:13.134Z,686.66
2023-03-17T08:19:13.150Z,687.85
2023-03-17T08:20:14.145Z,686.68
2023-03-17T08:21:15.775Z,688.17
2023-03-17T08:22:13.101Z,690.14
2023-03-17T08:23:13.610Z,692.65
2023-03-17T08:24:13.201Z,692.59
2023-03-17T08:25:13.094Z,694.04
2023-03-17T08:26:13.088Z,693.89
2023-03-17T08:27:13.122Z,696.55
2023-03-17T08:28:13.200Z,694.95
2023-03-17T08:29:13.040Z,694.22
2023-03-17T08:30:13.101Z,696.46
2023-03-17T08:31:13.238Z,699.60
2023-03-17T08:32:13.038Z,702.13
2023-03-17T08:33:13.075Z,697.60
2023-03-17T08:34:12.970Z,700.09
2023-03-17T08:35:12.990Z,697.89
2023-03-17T08:36:12.966Z,697.22
2023-03-17T08:37:12.926Z,696.33
2023-03-17T08:38:13.231Z,693.63
2023-03-17T08:39:12.927Z,697.21
2023-03-17T08:40:12.892Z,696.22
2023-03-17T08:41:12.900Z,695.62
2023-03-17T08:42:12.875Z,693.67
2023-03-17T08:43:12.877Z,694.23
2023-03-17T08:44:12.949Z,695.47
2023-03-17T08:45:13.606Z,696.01
2023-03-17T08:46:12.913Z,696.66
2023-03-17T08:47:12.814Z,699.31
2023-03-17T08:48:19.902Z,694.33
2023-03-17T08:49:12.773Z,697.71
2023-03-17T08:50:12.767Z,693.68
2023-03-17T08:51:13.107Z,696.02
2023-03-17T08:52:12.917Z,694.05
2023-03-17T08:53:12.730Z,694.83
2023-03-17T08:54:12.822Z,693.50
2023-03-17T08:55:12.719Z,693.03
2023-03-17T08:56:12.700Z,694.38
2023-03-17T08:57:15.557Z,695.36
2023-03-17T08:58:12.685Z,694.19
2023-03-17T08:59:12.696Z,694.07
2023-03-17T09:00:12.665Z,697.68
2023-03-17T09:01:12.685Z,696.87
2023-03-17T09:02:12.688Z,700.95
2023-03-17T09:03:12.671Z,697.56
2023-03-17T09:04:12.680Z,694.75
2023-03-17T09:05:12.657Z,691.88
2023-03-17T09:06:12.591Z,696.25
2023-03-17T09:07:12.653Z,696.50
2023-03-17T09:08:12.628Z,694.64
2023-03-17T09:09:12.596Z,698.23
2023-03-17T09:10:12.593Z,695.66
2023-03-17T09:11:12.634Z,698.54
2023-03-17T09:12:12.606Z,695.46
2023-03-17T09:13:12.845Z,697.80
2023-03-17T09:14:12.564Z,696.37
2023-03-17T09:15:12.553Z,699.06
2023-03-17T09:16:12.535Z,702.30
2023-03-17T09:17:12.813Z,702.30
2023-03-17T09:18:12.781Z,700.07
2023-03-17T09:19:12.512Z,700.84
2023-03-17T09:20:12.580Z,699.56
2023-03-17T09:21:12.664Z,699.79
2023-03-17T09:22:12.488Z,698.09
2023-03-17T09:23:12.445Z,699.92
2023-03-17T09:24:12.509Z,702.40
2023-03-17T09:25:12.814Z,699.40
2023-03-17T09:26:12.432Z,699.30
2023-03-17T09:27:12.403Z,702.42
2023-03-17T09:28:12.502Z,702.50
2023-03-17T09:29:12.400Z,702.20
2023-03-17T09:30:12.324Z,705.34
2023-03-17T09:31:12.482Z,704.71
2023-03-17T09:32:12.314Z,705.06
2023-03-17T09:33:13.107Z,704.80
2023-03-17T09:34:12.288Z,704.17
2023-03-17T09:35:13.154Z,705.70
2023-03-17T09:36:12.375Z,704.87
2023-03-17T09:37:12.276Z,704.38
2023-03-17T09:38:12.286Z,704.93
2023-03-17T09:39:12.310Z,707.62
2023-03-17T09:40:12.258Z,710.30
2023-03-17T09:41:12.222Z,706.98
2023-03-17T09:42:12.308Z,706.63
2023-03-17T09:43:12.253Z,707.89
2023-03-17T09:44:12.254Z,709.24
2023-03-17T09:45:12.187Z,709.15
2023-03-17T09:46:13.251Z,708.23
2023-03-17T09:47:12.207Z,709.45
2023-03-17T09:48:12.194Z,709.84
2023-03-17T09:49:12.192Z,708.31
2023-03-17T09:50:12.097Z,711.41
2023-03-17T09:51:12.284Z,708.48
2023-03-17T09:52:12.213Z,710.61
2023-03-17T09:53:12.093Z,708.30
2023-03-17T09:54:12.124Z,709.32
2023-03-17T09:55:12.081Z,711.63
2023-03-17T09:56:12.045Z,711.75
2023-03-17T09:57:12.031Z,709.81
2023-03-17T09:58:12.150Z,707.91
2023-03-17T09:59:12.012Z,711.86
2023-03-17T10:00:12.015Z,709.98
2023-03-17T10:01:12.045Z,707.69
2023-03-17T10:02:12.090Z,710.14
2023-03-17T10:03:11.981Z,708.60
2023-03-17T10:04:11.954Z,707.53
2023-03-17T10:05:12.062Z,708.77
2023-03-17T10:06:13.316Z,708.48
2023-03-17T10:07:11.914Z,708.32
2023-03-17T10:08:28.843Z,706.68
2023-03-17T10:09:12.946Z,709.71
2023-03-17T10:10:11.892Z,708.93
2023-03-17T10:11:11.891Z,706.95
2023-03-17T10:12:11.900Z,708.40
2023-03-17T10:13:11.909Z,709.45
2023-03-17T10:14:11.846Z,709.89
2023-03-17T10:15:11.857Z,709.29
2023-03-17T10:16:11.969Z,711.57
2023-03-17T10:17:11.882Z,709.92
2023-03-17T10:18:11.824Z,708.68
2023-03-17T10:19:11.797Z,709.47
2023-03-17T10:20:11.799Z,711.58
2023-03-17T10:21:11.784Z,708.55
2023-03-17T10:22:11.797Z,706.17
2023-03-17T10:23:11.785Z,706.19
2023-03-17T10:24:11.768Z,707.79
2023-03-17T10:25:11.758Z,707.18
2023-03-17T10:26:11.808Z,706.54
2023-03-17T10:27:11.719Z,712.03
2023-03-17T10:28:11.742Z,711.61
2023-03-17T10:29:11.802Z,712.73
2023-03-17T10:30:11.952Z,711.08
2023-03-17T10:31:11.717Z,711.63
2023-03-17T10:32:11.637Z,711.33
2023-03-17T10:33:11.630Z,706.73
2023-03-17T10:34:11.626Z,705.48
2023-03-17T10:35:11.692Z,705.30
2023-03-17T10:36:11.678Z,703.21
2023-03-17T10:37:11.582Z,707.37
2023-03-17T10:38:14.306Z,711.03
2023-03-17T10:39:12.612Z,709.49
2023-03-17T10:40:11.581Z,714.13
2023-03-17T10:41:11.557Z,712.84
2023-03-17T10:42:11.543Z,709.56
2023-03-17T10:43:11.541Z,711.38
2023-03-17T10:44:11.545Z,708.73
2023-03-17T10:45:11.534Z,715.71
2023-03-17T10:46:11.496Z,714.49
2023-03-17T10:47:11.550Z,711.39
2023-03-17T10:48:11.467Z,708.66
2023-03-17T10:49:18.993Z,707.90
2023-03-17T10:50:11.461Z,710.14
2023-03-17T10:51:11.468Z,708.91
2023-03-17T10:52:11.476Z,710.11
2023-03-17T10:53:11.427Z,710.32
2023-03-17T10:54:11.417Z,709.08
2023-03-17T10:55:11.407Z,707.65
2023-03-17T10:56:11.467Z,706.32
2023-03-17T10:57:11.395Z,705.11
2023-03-17T10:58:11.374Z,706.36
2023-03-17T10:59:11.368Z,711.36
2023-03-17T11:00:11.386Z,707.87
2023-03-17T11:01:11.957Z,710.73
2023-03-17T11:02:11.461Z,710.66
2023-03-17T11:03:12.311Z,708.91
2023-03-17T11:04:11.329Z,706.47
2023-03-17T11:05:11.511Z,710.73
2023-03-17T11:06:11.317Z,712.25
2023-03-17T11:07:11.281Z,707.97
2023-03-17T11:08:11.506Z,705.82
2023-03-17T11:09:11.298Z,704.69
2023-03-17T11:10:11.245Z,707.18
2023-03-17T11:11:11.217Z,705.98
2023-03-17T11:12:11.270Z,705.33
2023-03-17T11:13:11.210Z,705.49
2023-03-17T11:14:11.205Z,703.49
2023-03-17T11:15:11.180Z,700.68
2023-03-17T11:16:11.191Z,699.75
2023-03-17T11:17:11.155Z,702.44
2023-03-17T11:18:11.137Z,703.21
2023-03-17T11:19:11.201Z,704.62
2023-03-17T11:20:11.120Z,708.41
2023-03-17T11:21:11.165Z,711.92
2023-03-17T11:22:11.180Z,711.55
2023-03-17T11:23:11.102Z,712.85
2023-03-17T11:24:11.180Z,710.44
2023-03-17T11:25:11.129Z,713.70
2023-03-17T11:26:11.054Z,710.02
2023-03-17T11:27:11.091Z,710.96
2023-03-17T11:28:11.079Z,708.53
2023-03-17T11:29:11.092Z,707.41
2023-03-17T11:30:12.900Z,710.22
2023-03-17T11:31:11.004Z,708.68
2023-03-17T11:32:11.013Z,708.60
2023-03-17T11:33:11.066Z,710.86
2023-03-17T11:34:10.997Z,707.01
2023-03-17T11:35:10.958Z,708.62
2023-03-17T11:36:11.005Z,709.98
2023-03-17T11:37:10.971Z,710.67
2023-03-17T11:38:10.925Z,714.48
2023-03-17T11:39:10.923Z,708.07
2023-03-17T11:40:10.919Z,705.81
2023-03-17T11:41:10.908Z,705.32
2023-03-17T11:42:10.938Z,705.78
2023-03-17T11:43:12.376Z,707.25
2023-03-17T11:44:12.550Z,708.29
2023-03-17T11:45:12.609Z,708.16
2023-03-17T11:46:12.557Z,706.57
2023-03-17T11:47:10.860Z,709.43
2023-03-17T11:48:19.290Z,708.83
2023-03-17T11:49:11.258Z,705.85
2023-03-17T11:50:10.814Z,708.11
2023-03-17T11:51:10.844Z,707.42
2023-03-17T11:52:10.774Z,708.63
2023-03-17T11:53:10.758Z,708.20
2023-03-17T11:54:10.746Z,713.62
2023-03-17T11:55:10.739Z,712.94
2023-03-17T11:56:10.741Z,713.16
2023-03-17T11:57:10.718Z,712.42
2023-03-17T11:58:10.748Z,708.35
2023-03-17T11:59:10.750Z,708.93
2023-03-17T12:00:10.703Z,708.11
2023-03-17T12:01:10.721Z,707.63
2023-03-17T12:02:10.655Z,706.20
2023-03-17T12:03:10.699Z,705.27
2023-03-17T12:04:10.649Z,711.29
2023-03-17T12:05:10.626Z,706.66
2023-03-17T12:06:10.623Z,706.74
2023-03-17T12:07:10.608Z,706.92
2023-03-17T12:08:10.620Z,709.36
2023-03-17T12:09:10.578Z,710.73
2023-03-17T12:10:10.594Z,711.76
2023-03-17T12:11:10.573Z,712.88
2023-03-17T12:12:10.553Z,710.21
2023-03-17T12:13:10.536Z,706.85
2023-03-17T12:14:10.602Z,707.46
2023-03-17T12:15:10.588Z,704.31
2023-03-17T12:16:10.582Z,702.07
2023-03-17T12:17:10.740Z,704.07
2023-03-17T12:18:10.510Z,706.45
2023-03-17T12:19:10.470Z,707.53
2023-03-17T12:20:10.482Z,704.45
2023-03-17T12:21:10.444Z,705.01
2023-03-17T12:22:10.466Z,705.86
2023-03-17T12:23:10.470Z,707.43
2023-03-17T12:24:10.409Z,704.89
2023-03-17T12:25:10.412Z,705.40
2023-03-17T12:26:10.410Z,705.73
2023-03-17T12:27:10.396Z,706.58
2023-03-17T12:28:10.362Z,710.81
2023-03-17T12:29:10.369Z,707.95
2023-03-17T12:30:10.356Z,711.09
2023-03-17T12:31:10.390Z,707.69
2023-03-17T12:32:10.339Z,709.75